sensor_id;sensor_type;location;lat;lon;timestamp;pressure;altitude;pressure_sealevel;temperature;humidity
69570;BME280;56781;42.292;23.146;2022-10-22T00:01:18;96410.03;;;1.52;87.45
69570;BME280;56781;42.292;23.146;2022-10-22T00:03:45;96417.09;;;1.40;89.67
69570;BME280;56781;42.292;23.146;2022-10-22T00:06:13;96436.28;;;1.28;92.58
69570;BME280;56781;42.292;23.146;2022-10-22T00:08:40;96433.13;;;0.95;94.58
69570;BME280;56781;42.292;23.146;2022-10-22T00:11:13;96408.53;;;0.82;96.38
69570;BME280;56781;42.292;23.146;2022-10-22T00:13:41;96450.34;;;1.22;96.89
69570;BME280;56781;42.292;23.146;2022-10-22T00:16:08;96346.44;;;0.68;96.74
69570;BME280;56781;42.292;23.146;2022-10-22T00:18:36;96441.41;;;1.60;95.90
69570;BME280;56781;42.292;23.146;2022-10-22T00:21:05;96386.88;;;1.36;94.58
69570;BME280;56781;42.292;23.146;2022-10-22T00:23:33;96404.22;;;1.50;95.12
69570;BME280;56781;42.292;23.146;2022-10-22T00:26:00;96435.34;;;1.78;94.33
69570;BME280;56781;42.292;23.146;2022-10-22T00:28:27;96431.75;;;1.72;94.24
69570;BME280;56781;42.292;23.146;2022-10-22T00:30:57;96420.22;;;1.85;93.46
69570;BME280;56781;42.292;23.146;2022-10-22T00:33:26;96402.41;;;1.81;92.40
69570;BME280;56781;42.292;23.146;2022-10-22T00:35:54;96380.00;;;1.71;92.75
69570;BME280;56781;42.292;23.146;2022-10-22T00:38:21;96419.84;;;2.00;93.09
69570;BME280;56781;42.292;23.146;2022-10-22T00:40:48;96403.09;;;1.58;93.42
69570;BME280;56781;42.292;23.146;2022-10-22T00:43:17;96404.03;;;1.26;93.15
69570;BME280;56781;42.292;23.146;2022-10-22T00:45:45;96413.84;;;1.19;94.96
69570;BME280;56781;42.292;23.146;2022-10-22T00:48:17;96466.81;;;1.80;93.71
69570;BME280;56781;42.292;23.146;2022-10-22T00:50:49;96392.63;;;1.51;93.23
69570;BME280;56781;42.292;23.146;2022-10-22T00:53:32;96388.72;;;1.53;94.13
69570;BME280;56781;42.292;23.146;2022-10-22T00:56:00;96403.53;;;1.73;94.14
69570;BME280;56781;42.292;23.146;2022-10-22T00:58:30;96390.13;;;1.74;94.10
69570;BME280;56781;42.292;23.146;2022-10-22T01:00:59;96384.28;;;1.84;93.49
69570;BME280;56781;42.292;23.146;2022-10-22T01:03:27;96397.28;;;1.86;93.40
69570;BME280;56781;42.292;23.146;2022-10-22T01:05:56;96364.47;;;1.45;93.09
69570;BME280;56781;42.292;23.146;2022-10-22T01:08:32;96401.41;;;1.45;93.02
69570;BME280;56781;42.292;23.146;2022-10-22T01:11:30;96425.44;;;1.37;94.10
69570;BME280;56781;42.292;23.146;2022-10-22T01:14:16;96413.28;;;1.36;93.05
69570;BME280;56781;42.292;23.146;2022-10-22T01:17:22;96440.97;;;1.26;95.14
69570;BME280;56781;42.292;23.146;2022-10-22T01:20:07;96407.84;;;1.12;95.19
69570;BME280;56781;42.292;23.146;2022-10-22T01:22:43;96393.06;;;1.29;93.93
69570;BME280;56781;42.292;23.146;2022-10-22T01:25:34;96397.75;;;1.46;94.22
69570;BME280;56781;42.292;23.146;2022-10-22T01:30:52;96436.88;;;1.67;93.12
69570;BME280;56781;42.292;23.146;2022-10-22T01:33:22;96411.44;;;1.54;92.08
69570;BME280;56781;42.292;23.146;2022-10-22T01:35:51;96411.03;;;1.39;91.20
69570;BME280;56781;42.292;23.146;2022-10-22T01:38:20;96401.53;;;1.13;91.78
69570;BME280;56781;42.292;23.146;2022-10-22T01:40:50;96384.25;;;1.36;90.83
69570;BME280;56781;42.292;23.146;2022-10-22T01:43:18;96412.69;;;1.52;91.18
69570;BME280;56781;42.292;23.146;2022-10-22T01:45:51;96403.31;;;1.56;90.29
69570;BME280;56781;42.292;23.146;2022-10-22T01:59:58;96374.16;;;0.46;91.84
69570;BME280;56781;42.292;23.146;2022-10-22T02:08:02;96348.19;;;0.74;90.01
69570;BME280;56781;42.292;23.146;2022-10-22T02:10:31;96348.25;;;0.86;90.64
69570;BME280;56781;42.292;23.146;2022-10-22T02:13:00;96361.63;;;1.09;91.63
69570;BME280;56781;42.292;23.146;2022-10-22T02:15:30;96396.66;;;1.35;91.79
69570;BME280;56781;42.292;23.146;2022-10-22T02:17:59;96368.31;;;1.30;93.22
69570;BME280;56781;42.292;23.146;2022-10-22T02:20:30;96362.16;;;1.37;93.15
69570;BME280;56781;42.292;23.146;2022-10-22T02:22:59;96369.66;;;1.51;92.54
69570;BME280;56781;42.292;23.146;2022-10-22T02:25:32;96353.50;;;1.48;93.37
69570;BME280;56781;42.292;23.146;2022-10-22T02:28:48;96377.88;;;1.62;95.00
69570;BME280;56781;42.292;23.146;2022-10-22T02:30:59;96402.00;;;1.95;95.81
69570;BME280;56781;42.292;23.146;2022-10-22T02:33:31;96410.13;;;2.12;96.20
69570;BME280;56781;42.292;23.146;2022-10-22T02:36:02;96353.31;;;1.80;95.95
69570;BME280;56781;42.292;23.146;2022-10-22T02:38:30;96353.34;;;1.91;94.89
69570;BME280;56781;42.292;23.146;2022-10-22T02:40:58;96430.00;;;2.15;93.33
69570;BME280;56781;42.292;23.146;2022-10-22T02:43:27;96371.06;;;1.54;92.38
69570;BME280;56781;42.292;23.146;2022-10-22T02:45:55;96368.38;;;1.42;91.77
69570;BME280;56781;42.292;23.146;2022-10-22T02:48:22;96342.59;;;0.64;90.82
69570;BME280;56781;42.292;23.146;2022-10-22T02:50:49;96344.78;;;0.67;91.05
69570;BME280;56781;42.292;23.146;2022-10-22T02:53:16;96372.19;;;0.66;91.29
69570;BME280;56781;42.292;23.146;2022-10-22T02:55:43;96399.56;;;0.33;93.10
69570;BME280;56781;42.292;23.146;2022-10-22T02:58:10;96361.22;;;0.12;94.11
69570;BME280;56781;42.292;23.146;2022-10-22T03:00:39;96368.09;;;0.13;93.88
69570;BME280;56781;42.292;23.146;2022-10-22T03:03:06;96381.50;;;0.37;94.13
69570;BME280;56781;42.292;23.146;2022-10-22T03:05:34;96417.06;;;0.53;94.26
69570;BME280;56781;42.292;23.146;2022-10-22T03:08:01;96442.50;;;0.65;95.29
69570;BME280;56781;42.292;23.146;2022-10-22T03:10:28;96402.44;;;0.57;95.48
69570;BME280;56781;42.292;23.146;2022-10-22T03:12:55;96404.53;;;0.73;95.35
69570;BME280;56781;42.292;23.146;2022-10-22T03:15:24;96441.44;;;1.17;95.92
69570;BME280;56781;42.292;23.146;2022-10-22T03:17:51;96427.25;;;1.18;95.36
69570;BME280;56781;42.292;23.146;2022-10-22T03:20:18;96423.66;;;1.12;94.10
69570;BME280;56781;42.292;23.146;2022-10-22T03:22:46;96436.72;;;1.25;93.23
69570;BME280;56781;42.292;23.146;2022-10-22T03:25:18;96485.28;;;1.61;93.37
69570;BME280;56781;42.292;23.146;2022-10-22T03:27:47;96416.44;;;1.26;91.60
69570;BME280;56781;42.292;23.146;2022-10-22T03:30:15;96413.28;;;1.17;89.72
69570;BME280;56781;42.292;23.146;2022-10-22T03:32:42;96436.97;;;0.99;89.91
69570;BME280;56781;42.292;23.146;2022-10-22T03:35:10;96386.66;;;0.25;91.76
69570;BME280;56781;42.292;23.146;2022-10-22T03:37:37;96406.88;;;0.31;92.64
69570;BME280;56781;42.292;23.146;2022-10-22T03:40:06;96419.06;;;0.26;92.91
69570;BME280;56781;42.292;23.146;2022-10-22T03:42:34;96432.34;;;0.37;92.01
69570;BME280;56781;42.292;23.146;2022-10-22T03:45:01;96412.06;;;0.44;91.49
69570;BME280;56781;42.292;23.146;2022-10-22T03:47:28;96434.22;;;0.62;92.41
69570;BME280;56781;42.292;23.146;2022-10-22T03:49:55;96402.75;;;0.67;92.79
69570;BME280;56781;42.292;23.146;2022-10-22T03:52:22;96400.63;;;0.82;92.80
69570;BME280;56781;42.292;23.146;2022-10-22T03:54:49;96427.81;;;1.01;93.57
69570;BME280;56781;42.292;23.146;2022-10-22T03:57:16;96474.53;;;1.38;93.84
69570;BME280;56781;42.292;23.146;2022-10-22T03:59:44;96408.00;;;1.17;93.70
69570;BME280;56781;42.292;23.146;2022-10-22T04:02:12;96385.72;;;1.13;93.26
69570;BME280;56781;42.292;23.146;2022-10-22T04:04:40;96397.44;;;0.99;92.23
69570;BME280;56781;42.292;23.146;2022-10-22T04:07:07;96411.88;;;1.15;92.09
69570;BME280;56781;42.292;23.146;2022-10-22T04:09:34;96395.38;;;1.01;91.78
69570;BME280;56781;42.292;23.146;2022-10-22T04:12:02;96453.94;;;1.03;91.38
69570;BME280;56781;42.292;23.146;2022-10-22T04:14:31;96393.69;;;0.63;91.05
69570;BME280;56781;42.292;23.146;2022-10-22T04:16:58;96410.91;;;0.84;91.90
69570;BME280;56781;42.292;23.146;2022-10-22T04:19:25;96383.59;;;0.78;92.47
69570;BME280;56781;42.292;23.146;2022-10-22T04:21:57;96438.50;;;1.31;93.23
69570;BME280;56781;42.292;23.146;2022-10-22T04:24:26;96390.41;;;1.11;92.24
69570;BME280;56781;42.292;23.146;2022-10-22T04:26:55;96355.81;;;0.82;91.96
69570;BME280;56781;42.292;23.146;2022-10-22T04:29:23;96370.19;;;1.05;90.37
69570;BME280;56781;42.292;23.146;2022-10-22T04:31:50;96365.78;;;0.99;88.96
69570;BME280;56781;42.292;23.146;2022-10-22T04:34:18;96387.88;;;0.79;89.62
69570;BME280;56781;42.292;23.146;2022-10-22T04:36:45;96391.22;;;0.68;90.53
69570;BME280;56781;42.292;23.146;2022-10-22T04:39:15;96371.78;;;0.37;92.84
69570;BME280;56781;42.292;23.146;2022-10-22T04:41:42;96360.44;;;0.62;92.57
69570;BME280;56781;42.292;23.146;2022-10-22T04:44:09;96401.03;;;1.04;92.82
69570;BME280;56781;42.292;23.146;2022-10-22T04:46:42;96360.16;;;0.95;91.89
69570;BME280;56781;42.292;23.146;2022-10-22T04:49:09;96380.88;;;1.10;92.92
69570;BME280;56781;42.292;23.146;2022-10-22T04:51:36;96362.06;;;1.06;92.24
69570;BME280;56781;42.292;23.146;2022-10-22T04:54:04;96431.31;;;1.57;92.66
69570;BME280;56781;42.292;23.146;2022-10-22T04:56:31;96386.78;;;1.30;92.53
69570;BME280;56781;42.292;23.146;2022-10-22T04:59:00;96353.28;;;1.31;92.13
69570;BME280;56781;42.292;23.146;2022-10-22T05:01:33;96352.31;;;1.44;91.47
69570;BME280;56781;42.292;23.146;2022-10-22T05:04:11;96374.00;;;1.46;91.48
69570;BME280;56781;42.292;23.146;2022-10-22T05:06:39;96359.94;;;1.33;90.82
69570;BME280;56781;42.292;23.146;2022-10-22T05:09:10;96378.63;;;1.32;89.27
69570;BME280;56781;42.292;23.146;2022-10-22T05:11:38;96368.28;;;0.94;90.28
69570;BME280;56781;42.292;23.146;2022-10-22T05:14:12;96346.50;;;0.80;91.72
69570;BME280;56781;42.292;23.146;2022-10-22T05:16:39;96378.56;;;1.20;90.90
69570;BME280;56781;42.292;23.146;2022-10-22T05:19:06;96401.53;;;1.13;91.40
69570;BME280;56781;42.292;23.146;2022-10-22T05:21:34;96442.97;;;1.31;92.09
69570;BME280;56781;42.292;23.146;2022-10-22T05:24:01;96381.25;;;0.95;92.39
69570;BME280;56781;42.292;23.146;2022-10-22T05:26:29;96378.84;;;1.12;92.32
69570;BME280;56781;42.292;23.146;2022-10-22T05:28:56;96420.91;;;1.44;92.86
69570;BME280;56781;42.292;23.146;2022-10-22T05:31:23;96375.63;;;1.28;92.18
69570;BME280;56781;42.292;23.146;2022-10-22T05:33:50;96414.03;;;1.61;91.50
69570;BME280;56781;42.292;23.146;2022-10-22T05:36:22;96380.16;;;1.21;91.39
69570;BME280;56781;42.292;23.146;2022-10-22T05:38:49;96383.84;;;1.20;90.44
69570;BME280;56781;42.292;23.146;2022-10-22T05:41:21;96396.50;;;1.12;91.10
69570;BME280;56781;42.292;23.146;2022-10-22T05:43:49;96383.88;;;0.95;93.15
69570;BME280;56781;42.292;23.146;2022-10-22T05:46:18;96411.59;;;1.23;92.88
69570;BME280;56781;42.292;23.146;2022-10-22T05:48:56;96459.03;;;1.66;92.96
69570;BME280;56781;42.292;23.146;2022-10-22T05:51:24;96411.81;;;1.40;93.27
69570;BME280;56781;42.292;23.146;2022-10-22T05:53:54;96420.19;;;1.55;94.10
69570;BME280;56781;42.292;23.146;2022-10-22T05:56:22;96364.47;;;1.45;94.28
69570;BME280;56781;42.292;23.146;2022-10-22T05:58:50;96392.25;;;1.66;94.58
69570;BME280;56781;42.292;23.146;2022-10-22T06:01:29;96411.16;;;2.11;93.54
69570;BME280;56781;42.292;23.146;2022-10-22T06:03:59;96417.47;;;2.40;93.22
69570;BME280;56781;42.292;23.146;2022-10-22T06:06:42;96425.47;;;2.87;91.88
69570;BME280;56781;42.292;23.146;2022-10-22T06:09:25;96421.44;;;3.44;90.52
69570;BME280;56781;42.292;23.146;2022-10-22T06:11:54;96468.00;;;4.32;88.68
69570;BME280;56781;42.292;23.146;2022-10-22T06:14:22;96393.50;;;4.17;87.27
69570;BME280;56781;42.292;23.146;2022-10-22T06:16:49;96424.53;;;4.62;87.09
69570;BME280;56781;42.292;23.146;2022-10-22T06:19:19;96408.94;;;4.82;86.63
69570;BME280;56781;42.292;23.146;2022-10-22T06:21:47;96398.09;;;5.40;84.72
69570;BME280;56781;42.292;23.146;2022-10-22T06:24:15;96409.16;;;6.14;82.01
69570;BME280;56781;42.292;23.146;2022-10-22T06:26:42;96434.13;;;6.68;80.61
69570;BME280;56781;42.292;23.146;2022-10-22T06:29:09;96381.41;;;6.59;79.75
69570;BME280;56781;42.292;23.146;2022-10-22T06:31:36;96411.75;;;6.91;79.31
69570;BME280;56781;42.292;23.146;2022-10-22T06:34:07;96393.28;;;6.79;79.67
69570;BME280;56781;42.292;23.146;2022-10-22T06:36:36;96415.47;;;6.90;80.18
69570;BME280;56781;42.292;23.146;2022-10-22T06:39:04;96384.41;;;7.00;79.86
69570;BME280;56781;42.292;23.146;2022-10-22T06:41:31;96423.06;;;8.08;76.73
69570;BME280;56781;42.292;23.146;2022-10-22T06:43:58;96398.94;;;8.46;74.52
69570;BME280;56781;42.292;23.146;2022-10-22T06:46:25;96437.97;;;8.82;73.77
69570;BME280;56781;42.292;23.146;2022-10-22T06:49:00;96460.69;;;9.21;72.50
69570;BME280;56781;42.292;23.146;2022-10-22T06:51:29;96406.72;;;8.98;72.13
69570;BME280;56781;42.292;23.146;2022-10-22T06:53:56;96466.75;;;9.83;70.86
69570;BME280;56781;42.292;23.146;2022-10-22T06:56:26;96397.78;;;9.74;69.81
69570;BME280;56781;42.292;23.146;2022-10-22T06:58:55;96390.03;;;10.38;67.51
69570;BME280;56781;42.292;23.146;2022-10-22T07:01:25;96400.00;;;10.67;65.78
69570;BME280;56781;42.292;23.146;2022-10-22T07:03:53;96451.59;;;11.80;64.17
69570;BME280;56781;42.292;23.146;2022-10-22T07:06:22;96406.28;;;11.79;62.15
69570;BME280;56781;42.292;23.146;2022-10-22T07:08:49;96364.06;;;11.89;62.69
69570;BME280;56781;42.292;23.146;2022-10-22T07:11:20;96411.84;;;13.06;60.21
69570;BME280;56781;42.292;23.146;2022-10-22T07:13:48;96445.44;;;13.41;58.84
69570;BME280;56781;42.292;23.146;2022-10-22T07:16:16;96375.53;;;13.55;57.52
69570;BME280;56781;42.292;23.146;2022-10-22T07:18:44;96391.63;;;14.38;55.16
69570;BME280;56781;42.292;23.146;2022-10-22T07:21:14;96446.41;;;15.20;53.23
69570;BME280;56781;42.292;23.146;2022-10-22T07:23:42;96423.13;;;15.69;51.38
69570;BME280;56781;42.292;23.146;2022-10-22T07:26:11;96366.13;;;14.94;51.98
69570;BME280;56781;42.292;23.146;2022-10-22T07:28:39;96397.25;;;15.45;51.38
69570;BME280;56781;42.292;23.146;2022-10-22T07:31:08;96451.63;;;15.61;50.00
69570;BME280;56781;42.292;23.146;2022-10-22T07:33:36;96405.38;;;15.23;50.32
69570;BME280;56781;42.292;23.146;2022-10-22T07:36:05;96391.69;;;14.97;52.08
69570;BME280;56781;42.292;23.146;2022-10-22T07:38:33;96391.97;;;15.40;50.95
69570;BME280;56781;42.292;23.146;2022-10-22T07:41:00;96372.81;;;15.19;51.42
69570;BME280;56781;42.292;23.146;2022-10-22T07:43:28;96427.13;;;15.58;53.63
69570;BME280;56781;42.292;23.146;2022-10-22T07:45:55;96372.38;;;15.57;52.60
69570;BME280;56781;42.292;23.146;2022-10-22T07:48:23;96395.28;;;16.00;50.93
69570;BME280;56781;42.292;23.146;2022-10-22T07:50:50;96398.16;;;16.78;48.96
69570;BME280;56781;42.292;23.146;2022-10-22T07:53:18;96360.09;;;16.57;48.77
69570;BME280;56781;42.292;23.146;2022-10-22T07:55:47;96383.31;;;16.40;48.41
69570;BME280;56781;42.292;23.146;2022-10-22T07:58:16;96357.69;;;16.21;48.52
69570;BME280;56781;42.292;23.146;2022-10-22T08:00:44;96373.16;;;15.89;49.33
69570;BME280;56781;42.292;23.146;2022-10-22T08:03:12;96429.41;;;16.53;48.50
69570;BME280;56781;42.292;23.146;2022-10-22T08:05:40;96392.69;;;16.52;48.82
69570;BME280;56781;42.292;23.146;2022-10-22T08:08:10;96377.91;;;16.58;48.76
69570;BME280;56781;42.292;23.146;2022-10-22T08:10:38;96362.50;;;16.58;47.76
69570;BME280;56781;42.292;23.146;2022-10-22T08:13:06;96395.31;;;16.83;48.09
69570;BME280;56781;42.292;23.146;2022-10-22T08:15:33;96404.72;;;16.28;50.04
69570;BME280;56781;42.292;23.146;2022-10-22T08:18:00;96412.38;;;15.86;51.60
69570;BME280;56781;42.292;23.146;2022-10-22T08:20:27;96407.25;;;15.00;54.18
69570;BME280;56781;42.292;23.146;2022-10-22T08:22:54;96374.56;;;14.56;56.45
69570;BME280;56781;42.292;23.146;2022-10-22T08:25:21;96371.69;;;14.39;55.56
69570;BME280;56781;42.292;23.146;2022-10-22T08:27:49;96372.13;;;14.18;56.48
69570;BME280;56781;42.292;23.146;2022-10-22T08:30:16;96403.63;;;14.32;56.45
69570;BME280;56781;42.292;23.146;2022-10-22T08:32:43;96369.56;;;13.58;59.97
69570;BME280;56781;42.292;23.146;2022-10-22T08:35:10;96402.63;;;13.59;61.35
69570;BME280;56781;42.292;23.146;2022-10-22T08:37:42;96402.25;;;13.65;60.79
69570;BME280;56781;42.292;23.146;2022-10-22T08:40:19;96396.28;;;13.96;59.05
69570;BME280;56781;42.292;23.146;2022-10-22T08:45:49;96368.78;;;13.85;60.46
69570;BME280;56781;42.292;23.146;2022-10-22T08:51:11;96361.19;;;14.01;60.39
69570;BME280;56781;42.292;23.146;2022-10-22T08:53:46;96392.47;;;13.97;59.03
69570;BME280;56781;42.292;23.146;2022-10-22T08:56:15;96384.09;;;14.26;59.27
69570;BME280;56781;42.292;23.146;2022-10-22T08:58:56;96332.22;;;14.21;58.50
69570;BME280;56781;42.292;23.146;2022-10-22T09:01:35;96347.78;;;14.24;58.91
69570;BME280;56781;42.292;23.146;2022-10-22T09:04:14;96368.34;;;14.06;58.03
69570;BME280;56781;42.292;23.146;2022-10-22T09:06:45;96363.94;;;14.24;56.85
69570;BME280;56781;42.292;23.146;2022-10-22T09:09:18;96331.22;;;14.16;55.95
69570;BME280;56781;42.292;23.146;2022-10-22T09:11:50;96391.41;;;14.62;54.27
69570;BME280;56781;42.292;23.146;2022-10-22T09:14:21;96381.16;;;14.87;54.14
69570;BME280;56781;42.292;23.146;2022-10-22T09:19:24;96338.22;;;14.90;54.67
69570;BME280;56781;42.292;23.146;2022-10-22T09:21:57;96364.94;;;15.32;53.83
69570;BME280;56781;42.292;23.146;2022-10-22T09:24:39;96329.22;;;15.26;54.71
69570;BME280;56781;42.292;23.146;2022-10-22T09:27:15;96361.84;;;15.47;53.48
69570;BME280;56781;42.292;23.146;2022-10-22T09:29:43;96342.03;;;15.51;53.25
69570;BME280;56781;42.292;23.146;2022-10-22T09:32:11;96288.88;;;15.21;53.01
69570;BME280;56781;42.292;23.146;2022-10-22T09:34:38;96317.50;;;15.70;52.86
69570;BME280;56781;42.292;23.146;2022-10-22T09:37:08;96294.28;;;15.61;53.16
69570;BME280;56781;42.292;23.146;2022-10-22T09:39:38;96307.59;;;15.97;52.50
69570;BME280;56781;42.292;23.146;2022-10-22T09:42:06;96314.13;;;16.13;52.63
69570;BME280;56781;42.292;23.146;2022-10-22T09:44:35;96275.47;;;15.78;52.48
69570;BME280;56781;42.292;23.146;2022-10-22T09:47:05;96299.81;;;16.04;53.27
69570;BME280;56781;42.292;23.146;2022-10-22T09:49:34;96267.88;;;16.06;51.02
69570;BME280;56781;42.292;23.146;2022-10-22T09:52:01;96274.25;;;16.28;51.29
69570;BME280;56781;42.292;23.146;2022-10-22T09:57:04;96270.09;;;16.65;52.14
69570;BME280;56781;42.292;23.146;2022-10-22T09:59:36;96265.78;;;16.90;49.33
69570;BME280;56781;42.292;23.146;2022-10-22T10:02:18;96310.16;;;16.98;50.85
69570;BME280;56781;42.292;23.146;2022-10-22T10:05:03;96297.13;;;16.65;50.15
69570;BME280;56781;42.292;23.146;2022-10-22T10:07:33;96273.31;;;16.32;50.57
69570;BME280;56781;42.292;23.146;2022-10-22T10:10:01;96314.47;;;16.73;51.94
69570;BME280;56781;42.292;23.146;2022-10-22T10:15:27;96299.19;;;16.68;50.13
69570;BME280;56781;42.292;23.146;2022-10-22T10:20:40;96243.03;;;16.82;50.03
69570;BME280;56781;42.292;23.146;2022-10-22T10:28:58;96219.06;;;17.19;49.55
69570;BME280;56781;42.292;23.146;2022-10-22T10:37:51;96225.13;;;17.16;48.06
69570;BME280;56781;42.292;23.146;2022-10-22T10:40:41;96197.72;;;17.26;47.48
69570;BME280;56781;42.292;23.146;2022-10-22T10:46:34;96234.69;;;17.82;47.04
69570;BME280;56781;42.292;23.146;2022-10-22T10:49:19;96207.41;;;17.87;47.30
69570;BME280;56781;42.292;23.146;2022-10-22T10:54:42;96195.38;;;18.17;45.29
69570;BME280;56781;42.292;23.146;2022-10-22T11:00:13;96162.00;;;18.05;45.33
69570;BME280;56781;42.292;23.146;2022-10-22T11:08:21;96206.88;;;18.69;45.70
69570;BME280;56781;42.292;23.146;2022-10-22T11:11:07;96210.50;;;18.73;44.37
69570;BME280;56781;42.292;23.146;2022-10-22T11:13:42;96191.53;;;18.73;45.13
69570;BME280;56781;42.292;23.146;2022-10-22T11:16:26;96148.41;;;18.47;44.54
69570;BME280;56781;42.292;23.146;2022-10-22T11:19:06;96173.31;;;18.40;45.17
69570;BME280;56781;42.292;23.146;2022-10-22T11:24:36;96185.56;;;18.92;45.68
69570;BME280;56781;42.292;23.146;2022-10-22T11:27:20;96171.56;;;18.90;44.84
69570;BME280;56781;42.292;23.146;2022-10-22T11:29:59;96181.97;;;19.12;45.05
69570;BME280;56781;42.292;23.146;2022-10-22T11:32:28;96087.53;;;18.69;44.92
69570;BME280;56781;42.292;23.146;2022-10-22T11:34:58;96077.13;;;18.46;44.32
69570;BME280;56781;42.292;23.146;2022-10-22T11:37:30;96164.69;;;19.41;44.59
69570;BME280;56781;42.292;23.146;2022-10-22T11:40:06;96155.41;;;19.42;44.23
69570;BME280;56781;42.292;23.146;2022-10-22T11:42:37;96152.22;;;19.53;45.01
69570;BME280;56781;42.292;23.146;2022-10-22T11:45:27;96139.09;;;19.55;43.80
69570;BME280;56781;42.292;23.146;2022-10-22T11:48:05;96095.00;;;19.33;44.61
69570;BME280;56781;42.292;23.146;2022-10-22T11:50:43;96128.69;;;19.69;44.88
69570;BME280;56781;42.292;23.146;2022-10-22T12:03:39;96024.03;;;18.82;44.71
69570;BME280;56781;42.292;23.146;2022-10-22T12:09:00;96095.84;;;19.62;42.56
69570;BME280;56781;42.292;23.146;2022-10-22T12:11:38;96120.16;;;19.83;43.73
69570;BME280;56781;42.292;23.146;2022-10-22T12:14:23;96086.03;;;19.57;43.77
69570;BME280;56781;42.292;23.146;2022-10-22T12:19:40;96105.06;;;19.98;44.14
69570;BME280;56781;42.292;23.146;2022-10-22T12:24:46;96080.97;;;20.12;43.02
69570;BME280;56781;42.292;23.146;2022-10-22T12:27:23;96073.06;;;20.07;42.38
69570;BME280;56781;42.292;23.146;2022-10-22T12:29:58;96043.72;;;19.84;42.28
69570;BME280;56781;42.292;23.146;2022-10-22T12:32:36;96098.84;;;20.13;42.73
69570;BME280;56781;42.292;23.146;2022-10-22T12:35:13;96099.16;;;20.40;42.85
69570;BME280;56781;42.292;23.146;2022-10-22T12:37:42;96087.47;;;20.23;42.60
69570;BME280;56781;42.292;23.146;2022-10-22T12:40:29;96047.06;;;19.93;43.36
69570;BME280;56781;42.292;23.146;2022-10-22T12:43:03;96032.78;;;19.97;43.83
69570;BME280;56781;42.292;23.146;2022-10-22T12:45:33;96043.53;;;20.37;43.13
69570;BME280;56781;42.292;23.146;2022-10-22T12:48:05;96046.94;;;20.18;42.77
69570;BME280;56781;42.292;23.146;2022-10-22T12:50:42;96054.47;;;20.09;43.78
69570;BME280;56781;42.292;23.146;2022-10-22T12:53:14;96031.25;;;19.83;43.05
69570;BME280;56781;42.292;23.146;2022-10-22T12:55:49;96039.91;;;19.73;42.75
69570;BME280;56781;42.292;23.146;2022-10-22T12:58:20;96068.50;;;20.11;43.24
69570;BME280;56781;42.292;23.146;2022-10-22T13:00:47;96033.53;;;20.09;42.83
69570;BME280;56781;42.292;23.146;2022-10-22T13:03:32;96059.94;;;20.41;42.40
69570;BME280;56781;42.292;23.146;2022-10-22T13:08:39;96040.31;;;20.31;41.39
69570;BME280;56781;42.292;23.146;2022-10-22T13:11:08;96008.88;;;20.02;41.50
69570;BME280;56781;42.292;23.146;2022-10-22T13:16:20;96016.75;;;20.07;41.35
69570;BME280;56781;42.292;23.146;2022-10-22T13:18:51;96057.06;;;20.33;41.55
69570;BME280;56781;42.292;23.146;2022-10-22T13:21:27;96018.81;;;20.26;41.40
69570;BME280;56781;42.292;23.146;2022-10-22T13:23:59;96043.81;;;20.48;41.23
69570;BME280;56781;42.292;23.146;2022-10-22T13:26:33;95928.88;;;19.72;42.00
69570;BME280;56781;42.292;23.146;2022-10-22T13:29:02;96031.78;;;20.49;41.34
69570;BME280;56781;42.292;23.146;2022-10-22T13:31:35;95987.75;;;20.27;41.58
69570;BME280;56781;42.292;23.146;2022-10-22T13:34:05;96000.66;;;20.30;42.33
69570;BME280;56781;42.292;23.146;2022-10-22T13:36:39;95990.56;;;20.31;41.69
69570;BME280;56781;42.292;23.146;2022-10-22T13:39:13;95940.84;;;19.99;41.52
69570;BME280;56781;42.292;23.146;2022-10-22T13:41:41;95989.78;;;20.30;42.60
69570;BME280;56781;42.292;23.146;2022-10-22T13:44:08;96021.09;;;20.40;42.29
69570;BME280;56781;42.292;23.146;2022-10-22T13:46:35;96020.38;;;20.43;42.58
69570;BME280;56781;42.292;23.146;2022-10-22T13:49:19;95940.22;;;20.05;41.44
69570;BME280;56781;42.292;23.146;2022-10-22T13:51:49;95998.22;;;20.41;41.31
69570;BME280;56781;42.292;23.146;2022-10-22T13:54:20;95982.47;;;20.19;41.66
69570;BME280;56781;42.292;23.146;2022-10-22T13:56:47;95961.63;;;20.07;42.07
69570;BME280;56781;42.292;23.146;2022-10-22T13:59:14;96010.28;;;20.44;41.82
69570;BME280;56781;42.292;23.146;2022-10-22T14:01:46;96017.13;;;20.37;42.00
69570;BME280;56781;42.292;23.146;2022-10-22T14:04:13;95984.59;;;20.25;41.19
69570;BME280;56781;42.292;23.146;2022-10-22T14:06:41;96004.69;;;20.36;42.08
69570;BME280;56781;42.292;23.146;2022-10-22T14:09:12;96017.66;;;20.27;43.36
69570;BME280;56781;42.292;23.146;2022-10-22T14:11:40;96006.38;;;20.41;42.83
69570;BME280;56781;42.292;23.146;2022-10-22T14:14:08;96010.13;;;20.36;42.74
69570;BME280;56781;42.292;23.146;2022-10-22T14:16:40;95979.84;;;20.06;42.28
69570;BME280;56781;42.292;23.146;2022-10-22T14:19:12;95960.31;;;20.01;41.95
69570;BME280;56781;42.292;23.146;2022-10-22T14:21:40;96008.25;;;20.25;41.88
69570;BME280;56781;42.292;23.146;2022-10-22T14:24:08;96007.22;;;20.29;42.17
69570;BME280;56781;42.292;23.146;2022-10-22T14:26:38;96002.81;;;20.25;42.47
69570;BME280;56781;42.292;23.146;2022-10-22T14:29:05;96004.34;;;20.22;42.41
69570;BME280;56781;42.292;23.146;2022-10-22T14:31:37;95999.66;;;20.07;43.22
69570;BME280;56781;42.292;23.146;2022-10-22T14:34:05;96004.75;;;20.08;42.75
69570;BME280;56781;42.292;23.146;2022-10-22T14:36:32;96005.44;;;20.05;43.14
69570;BME280;56781;42.292;23.146;2022-10-22T14:38:59;95998.16;;;19.93;43.56
69570;BME280;56781;42.292;23.146;2022-10-22T14:41:27;95959.16;;;19.58;43.75
69570;BME280;56781;42.292;23.146;2022-10-22T14:43:54;95957.88;;;19.39;44.89